createdAt,value
2022-08-19T00:04:35.826Z,97.02
2022-08-19T00:09:38.635Z,100.00
2022-08-19T00:14:43.277Z,98.45
2022-08-19T00:19:46.049Z,100.00
2022-08-19T00:24:49.608Z,99.02
2022-08-19T00:29:55.271Z,98.82
2022-08-19T00:34:58.184Z,99.66
2022-08-19T00:40:00.929Z,97.14
2022-08-19T00:45:12.490Z,96.60
2022-08-19T00:50:18.709Z,100.00
2022-08-19T00:55:24.417Z,100.00
2022-08-19T01:00:29.691Z,100.00
2022-08-19T01:05:32.790Z,100.00
2022-08-19T01:10:40.998Z,100.00
2022-08-19T01:15:48.848Z,100.00
2022-08-19T01:20:53.932Z,100.00
2022-08-19T01:25:57.993Z,100.00
2022-08-19T01:31:01.817Z,100.00
2022-08-19T01:36:13.689Z,100.00
2022-08-19T01:41:19.459Z,99.32
2022-08-19T01:46:24.907Z,100.00
2022-08-19T01:51:28.309Z,100.00
2022-08-19T01:56:32.911Z,100.00
2022-08-19T02:01:35.903Z,100.00
2022-08-19T02:06:39.195Z,100.00
2022-08-19T02:11:43.415Z,100.00
2022-08-19T02:16:46.153Z,100.00
2022-08-19T02:21:48.859Z,100.00
2022-08-19T02:26:53.173Z,100.00
2022-08-19T02:31:55.899Z,100.00
2022-08-19T02:37:01.900Z,100.00
2022-08-19T02:42:08.153Z,100.00
2022-08-19T02:47:11.961Z,100.00
2022-08-19T02:52:14.968Z,100.00
2022-08-19T02:57:19.041Z,100.00
2022-08-19T03:02:22.170Z,100.00
2022-08-19T03:07:24.863Z,100.00
2022-08-19T03:12:29.083Z,100.00
2022-08-19T03:17:31.891Z,100.00
2022-08-19T03:22:34.629Z,100.00
2022-08-19T03:27:38.688Z,100.00
2022-08-19T03:32:41.730Z,100.00
2022-08-19T03:37:48.267Z,100.00
2022-08-19T03:42:52.542Z,100.00
2022-08-19T03:47:55.328Z,100.00
2022-08-19T03:52:58.045Z,100.00
2022-08-19T03:58:02.105Z,100.00
2022-08-19T04:03:04.939Z,100.00
2022-08-19T04:08:10.792Z,100.00
2022-08-19T04:13:19.169Z,100.00
2022-08-19T04:18:21.869Z,100.00
2022-08-19T04:23:24.942Z,100.00
2022-08-19T04:28:29.868Z,100.00
2022-08-19T04:33:32.723Z,100.00
2022-08-19T04:38:35.562Z,100.00
2022-08-19T04:43:40.496Z,100.00
2022-08-19T04:48:49.435Z,100.00
2022-08-19T04:53:53.354Z,100.00
2022-08-19T04:58:58.503Z,100.00
2022-08-19T05:04:02.481Z,100.00
2022-08-19T05:09:07.334Z,100.00
2022-08-19T05:14:13.318Z,100.00
2022-08-19T05:19:33.691Z,100.00
2022-08-19T05:24:44.051Z,100.00
2022-08-19T05:29:55.469Z,100.00
2022-08-19T05:34:58.842Z,100.00
2022-08-19T05:40:02.376Z,100.00
2022-08-19T05:45:07.801Z,100.00
2022-08-19T05:50:11.477Z,100.00
2022-08-19T05:55:14.421Z,100.00
2022-08-19T06:00:24.032Z,100.00
2022-08-19T06:05:27.480Z,100.00
2022-08-19T06:10:30.970Z,100.00
2022-08-19T06:15:35.864Z,100.00
2022-08-19T06:20:55.078Z,100.00
2022-08-19T06:25:58.665Z,100.00
2022-08-19T06:31:08.230Z,100.00
2022-08-19T06:36:19.367Z,100.00
2022-08-19T06:41:22.111Z,100.00
2022-08-19T06:46:27.252Z,100.00
2022-08-19T06:56:35.593Z,100.00
2022-08-19T07:01:42.362Z,100.00
2022-08-19T07:06:45.727Z,100.00
2022-08-19T07:11:58.138Z,100.00
2022-08-19T07:17:02.241Z,100.00
2022-08-19T07:22:07.418Z,100.00
2022-08-19T07:27:16.978Z,100.00
2022-08-19T07:32:21.096Z,100.00
2022-08-19T07:37:23.906Z,100.00
2022-08-19T07:42:26.692Z,100.00
2022-08-19T07:47:48.968Z,100.00
2022-08-19T07:52:54.814Z,99.17
2022-08-19T07:57:57.648Z,99.89
2022-08-19T08:03:01.873Z,99.70
2022-08-19T08:08:37.211Z,96.28
2022-08-19T08:13:47.272Z,93.17
2022-08-19T08:19:20.593Z,91.14
2022-08-19T08:24:31.558Z,87.89
2022-08-19T08:29:35.336Z,84.54
2022-08-19T08:34:39.474Z,82.28
2022-08-19T08:39:42.287Z,80.42
2022-08-19T08:50:06.711Z,77.34
2022-08-19T08:55:13.225Z,75.70
2022-08-19T09:00:21.858Z,73.71
2022-08-19T09:05:39.499Z,73.25
2022-08-19T09:10:55.309Z,72.14
2022-08-19T09:16:03.263Z,70.05
2022-08-19T09:21:08.682Z,69.39
2022-08-19T09:26:16.327Z,67.15
2022-08-19T09:31:21.682Z,65.56
2022-08-19T09:36:31.269Z,63.40
2022-08-19T09:41:37.798Z,61.34
2022-08-19T09:46:40.671Z,62.89
2022-08-19T09:51:46.882Z,61.43
2022-08-19T09:56:54.545Z,59.13
2022-08-19T10:02:04.002Z,58.93
2022-08-19T10:07:15.337Z,56.84
2022-08-19T10:12:20.157Z,56.12
2022-08-19T10:17:26.423Z,56.22
2022-08-19T10:22:31.653Z,53.97
2022-08-19T10:27:34.501Z,53.32
2022-08-19T10:32:38.554Z,53.80
2022-08-19T10:37:57.047Z,52.74
2022-08-19T10:43:02.852Z,52.97
2022-08-19T10:48:05.877Z,53.63
2022-08-19T10:53:10.438Z,52.46
2022-08-19T10:58:14.885Z,51.24
2022-08-19T11:03:17.741Z,51.26
2022-08-19T11:08:22.967Z,51.33
2022-08-19T11:13:26.718Z,48.80
2022-08-19T11:18:30.084Z,48.82
2022-08-19T11:23:34.275Z,47.61
2022-08-19T11:28:37.419Z,48.62
2022-08-19T11:33:40.561Z,48.23
2022-08-19T11:38:46.890Z,47.57
2022-08-19T11:43:49.753Z,47.34
2022-08-19T11:48:53.086Z,45.36
2022-08-19T11:53:58.539Z,45.83
2022-08-19T11:59:02.743Z,43.61
2022-08-19T12:04:06.336Z,43.96
2022-08-19T12:09:11.989Z,43.94
2022-08-19T12:14:16.842Z,43.59
2022-08-19T12:19:22.591Z,41.20
2022-08-19T12:24:26.905Z,40.51
2022-08-19T12:29:30.277Z,38.96
2022-08-19T12:34:34.477Z,38.37
2022-08-19T12:39:40.828Z,37.51
2022-08-19T12:44:45.055Z,37.67
2022-08-19T12:49:53.068Z,38.51
2022-08-19T12:54:59.537Z,39.39
2022-08-19T13:00:07.059Z,37.48
2022-08-19T13:05:13.150Z,35.31
2022-08-19T13:10:20.505Z,36.07
2022-08-19T13:15:24.715Z,34.58
2022-08-19T13:20:27.902Z,35.86
2022-08-19T13:25:32.001Z,35.67
2022-08-19T13:30:52.780Z,33.38
2022-08-19T13:36:01.458Z,32.91
2022-08-19T13:41:12.153Z,33.00
2022-08-19T13:46:16.044Z,33.07
2022-08-19T13:51:19.707Z,31.65
2022-08-19T13:56:26.350Z,33.10
2022-08-19T14:01:31.180Z,35.56
2022-08-19T14:06:34.049Z,33.98
2022-08-19T14:11:38.332Z,32.68
2022-08-19T14:16:41.041Z,32.44
2022-08-19T14:21:43.769Z,31.21
2022-08-19T14:26:47.862Z,30.29
2022-08-19T14:31:50.622Z,28.77
2022-08-19T14:36:53.667Z,28.52
2022-08-19T14:41:58.245Z,27.82
2022-08-19T14:47:01.066Z,28.40
2022-08-19T14:52:06.031Z,27.97
2022-08-19T14:57:13.506Z,28.71
2022-08-19T15:02:33.838Z,27.96
2022-08-19T15:07:37.293Z,26.69
2022-08-19T15:12:41.787Z,26.52
2022-08-19T15:17:46.694Z,24.70
2022-08-19T15:22:49.466Z,25.56
2022-08-19T15:27:53.680Z,25.68
2022-08-19T15:32:57.771Z,25.53
2022-08-19T15:38:00.611Z,24.32
2022-08-19T15:43:04.763Z,23.42
2022-08-19T15:48:07.652Z,22.83
2022-08-19T15:53:11.605Z,22.50
2022-08-19T15:58:35.312Z,22.80
2022-08-19T16:03:55.836Z,24.93
2022-08-19T16:09:01.908Z,26.05
2022-08-19T16:14:09.189Z,26.50
2022-08-19T16:19:13.359Z,27.95
2022-08-19T16:24:19.293Z,29.12
2022-08-19T16:29:33.832Z,31.08
2022-08-19T16:34:38.906Z,32.57
2022-08-19T16:39:43.642Z,33.91
2022-08-19T16:44:48.581Z,34.38
2022-08-19T16:49:52.990Z,34.51
2022-08-19T16:54:58.110Z,34.54
2022-08-19T17:00:05.219Z,36.06
2022-08-19T17:05:10.041Z,38.09
2022-08-19T17:10:12.830Z,38.93
2022-08-19T17:15:16.942Z,40.53
2022-08-19T17:20:20.299Z,41.43
2022-08-19T17:25:23.168Z,42.63
2022-08-19T17:30:27.440Z,44.05
2022-08-19T17:35:30.291Z,44.90
2022-08-19T17:40:33.261Z,46.11
2022-08-19T17:45:38.704Z,46.86
2022-08-19T17:50:41.642Z,47.63
2022-08-19T17:55:44.937Z,47.49
2022-08-19T18:00:54.418Z,48.42
2022-08-19T18:05:58.544Z,48.68
2022-08-19T18:11:01.522Z,49.37
2022-08-19T18:16:10.878Z,49.18
2022-08-19T18:21:13.781Z,50.31
2022-08-19T18:26:16.676Z,50.92
2022-08-19T18:31:21.054Z,51.86
2022-08-19T18:36:50.181Z,52.17
2022-08-19T18:42:04.290Z,52.27
2022-08-19T18:47:26.175Z,52.45
2022-08-19T18:52:28.931Z,53.22
2022-08-19T18:57:31.638Z,53.10
2022-08-19T19:02:39.879Z,53.39
2022-08-19T19:07:43.934Z,53.96
2022-08-19T19:12:47.159Z,54.69
2022-08-19T19:17:51.278Z,55.57
2022-08-19T19:22:55.948Z,55.62
2022-08-19T19:28:01.194Z,55.90
2022-08-19T19:33:05.878Z,56.67
2022-08-19T19:38:08.587Z,57.09
2022-08-19T19:43:11.301Z,57.36
2022-08-19T19:48:16.497Z,58.22
2022-08-19T19:53:19.270Z,57.92
2022-08-19T19:58:28.887Z,59.81
2022-08-19T20:03:33.422Z,60.97
2022-08-19T20:08:54.738Z,61.08
2022-08-19T20:13:57.515Z,60.99
2022-08-19T20:19:03.454Z,61.60
2022-08-19T20:24:09.905Z,62.97
2022-08-19T20:29:13.465Z,63.54
2022-08-19T20:34:37.421Z,63.31
2022-08-19T20:39:40.285Z,63.56
2022-08-19T20:44:43.047Z,66.00
2022-08-19T20:49:47.274Z,66.07
2022-08-19T20:54:50.154Z,66.37
2022-08-19T20:59:52.891Z,68.51
2022-08-19T21:04:59.099Z,68.50
2022-08-19T21:10:03.189Z,69.84
2022-08-19T21:15:08.639Z,70.41
2022-08-19T21:20:12.844Z,69.91
2022-08-19T21:25:17.159Z,71.06
2022-08-19T21:30:20.030Z,71.32
2022-08-19T21:35:24.965Z,71.94
2022-08-19T21:40:28.305Z,72.81
2022-08-19T21:45:31.321Z,73.06
2022-08-19T21:50:35.897Z,72.50
2022-08-19T21:55:39.702Z,73.42
2022-08-19T22:00:42.556Z,75.83
2022-08-19T22:05:46.669Z,75.55
2022-08-19T22:10:50.085Z,74.96
2022-08-19T22:15:52.918Z,73.71
2022-08-19T22:20:57.109Z,74.06
2022-08-19T22:25:59.959Z,76.42
2022-08-19T22:31:03.446Z,76.58
2022-08-19T22:36:08.678Z,78.41
2022-08-19T22:41:11.874Z,80.08
2022-08-19T22:46:17.398Z,79.84
2022-08-19T22:51:39.472Z,82.83
2022-08-19T22:56:43.337Z,84.09
2022-08-19T23:01:46.998Z,83.23
2022-08-19T23:06:52.768Z,85.59
2022-08-19T23:11:55.561Z,84.70
2022-08-19T23:16:59.231Z,86.46
2022-08-19T23:22:05.162Z,85.64
2022-08-19T23:27:25.745Z,89.19
2022-08-19T23:32:29.257Z,88.90
2022-08-19T23:37:33.355Z,90.56
2022-08-19T23:42:36.329Z,91.36
2022-08-19T23:47:40.589Z,91.51
2022-08-19T23:52:47.863Z,91.37
2022-08-19T23:57:50.839Z,95.77
